Terminal Aerodrome Forecast
Issued by NWS Cleveland, OH

Home | Current Version | Previous Version | Graphics & Text | Print | Product List | Glossary On
Versions: 1 2 3 4 5 6 7 8 9 10 11 12 13 14 15 16 17 18 19 20 21 22 23 24 25 26
000
FTUS41 KCLE 100943 AAA
TAFCLE
TAF AMD
KCLE 100943Z 1010/1112 24012G20KT P6SM BKN060
     FM101500 24009KT P6SM OVC025
     FM110000 22006KT P6SM OVC080
     FM110600 22006KT P6SM -SN OVC035
     FM110800 19005KT 4SM -SN OVC025=

USA.gov is the U.S. government's official web portal to all federal, state and local government web resources and services.